KPUW

Details ICAO KPUW (PUW)
Name Pullman Moscow Rgnl
Region United States
Timezone America/Los_Angeles (UTC-8.0)
Plans Departing 19
Arriving 47
Stats Elevation 2,556 ft / 779 m (AMSL)
Location 46.743856° -117.109587°
Runways 1
Magnetic Variation 14.273° E
Sunrise 2017-12-17 15:29:31 UTC / 2017-12-17 07:29:31 Local
Sunset 2017-12-18 00:02:38 UTC / 2017-12-17 16:02:38 Local
Advertisement - Login to hide

Runways

ID Width Length Bearing (true) Bearing (mag) Surface Threshold Offset Overrun Length
05 100 ft / 30 m 6,714 ft / 2,046 m 70.05° 55.78° Asphalt 290 ft / 88 m 0 ft / 0 m
23 100 ft / 30 m 6,714 ft / 2,046 m 250.07° 235.80° Asphalt 801 ft / 244 m 0 ft / 0 m

Map

Weather


0- 5 10 15 20 25 30 35+ Temperature / ° C

Clouds and Precipitation
Forecast for 2017-12-18 00:00 UTC. Updated 24 minutes ago

Ground ~20,000 ft ~40,000 ft Winds

METAR

KPUW 171925Z AUTO 11010KT 4SM -SN BR OVC019 M02/M03 A3014 RMK AO2 P0000 T10171033

TAF

TAF AMD KPUW 171938Z 1720/1818 10013KT 3SM -SN BR FEW010 OVC020 FM172200 12012KT 3/4SM -SN OVC012 FM180200 17011KT 6SM -RA BR BKN015 OVC020 FM180800 22012G22KT P6SM OVC025 FM181400 23015G24KT P6SM -RA OVC020

Frequencies

Recorded 135.67 MHz ASOS
Unicom 122.80 MHz CTAF/UNICOM
Warning: Do not use this data for real-world aviation or navigation. No guarantee of current accuracy is given.